Time;durP1;ratioP1;P1;durP2;ratioP2;P2;SDS_P1;SDS_P2;PMS_P1;PMS_P2;Temp;Humidity;BMP_temperature;BMP_pressure;BME280_temperature;BME280_humidity;BME280_pressure;Samples;Min_cycle;Max_cycle;Signal;HPM_P1;HPM_P2
2022/12/27 00:01:17;;;;;;;25.75;2.83;;;;;;;18.54;65.03;99650.34;7313909;19;130201;-65
2022/12/27 00:03:43;;;;;;;12.15;1.23;;;;;;;18.59;65.35;99656.03;7314350;19;128943;-65
2022/12/27 00:06:15;;;;;;;18.35;1.85;;;;;;;18.62;65.11;99664.44;7315603;19;129585;-68
2022/12/27 00:08:41;;;;;;;35.25;3.10;;;;;;;18.63;64.27;99676.50;7314299;19;129620;-65
2022/12/27 00:11:16;;;;;;;33.60;3.55;;;;;;;18.69;63.72;99686.44;7312118;19;129376;-66
2022/12/27 00:13:41;;;;;;;16.65;1.60;;;;;;;18.74;64.33;99689.50;7315783;19;129000;-67
2022/12/27 00:16:12;;;;;;;20.20;2.17;;;;;;;18.77;64.47;99688.47;7313447;19;129912;-65
2022/12/27 00:18:38;;;;;;;17.00;1.95;;;;;;;18.74;64.53;99692.13;7313620;19;128799;-66
2022/12/27 00:21:05;;;;;;;54.50;5.72;;;;;;;18.78;64.29;99687.50;7299175;19;133783;-68
2022/12/27 00:23:35;;;;;;;25.52;2.80;;;;;;;18.65;63.50;99672.00;7313772;19;129741;-67
2022/12/27 00:26:12;;;;;;;15.85;1.65;;;;;;;18.76;64.17;99690.22;7310001;19;132104;-65
2022/12/27 00:28:37;;;;;;;15.48;1.70;;;;;;;18.74;63.78;99692.13;7313473;19;130089;-67
2022/12/27 00:31:04;;;;;;;38.75;4.13;;;;;;;18.78;64.19;99697.91;7311496;19;130123;-66
2022/12/27 00:33:32;;;;;;;27.58;2.80;;;;;;;18.63;64.34;99668.69;7313572;19;129590;-65
2022/12/27 00:35:59;;;;;;;12.82;1.48;;;;;;;18.71;64.63;99694.97;7312526;19;129287;-67
2022/12/27 00:38:25;;;;;;;14.73;1.77;;;;;;;18.70;64.32;99702.91;7312155;19;128938;-67
2022/12/27 00:40:50;;;;;;;25.85;2.45;;;;;;;18.72;65.65;99727.03;7311913;19;129704;-65
2022/12/27 00:43:15;;;;;;;25.63;2.67;;;;;;;18.76;64.48;99729.28;7312619;19;130005;-66
2022/12/27 00:45:42;;;;;;;25.33;3.13;;;;;;;18.82;65.18;99734.03;7309044;19;133152;-66
2022/12/27 00:48:07;;;;;;;14.05;1.42;;;;;;;18.84;64.54;99739.94;7311902;19;129870;-68
2022/12/27 00:50:32;;;;;;;32.28;2.92;;;;;;;18.87;65.17;99749.31;7309262;19;128875;-65
2022/12/27 00:52:58;;;;;;;21.85;2.10;;;;;;;18.82;65.43;99744.47;7312628;19;129531;-65
2022/12/27 00:55:23;;;;;;;20.23;1.75;;;;;;;18.83;64.96;99746.09;7311742;19;129136;-66
2022/12/27 00:57:48;;;;;;;17.65;1.55;;;;;;;18.78;65.91;99750.84;7313756;19;129387;-65
2022/12/27 01:00:14;;;;;;;49.50;4.10;;;;;;;18.83;65.96;99751.31;7311880;19;128931;-67
2022/12/27 01:02:39;;;;;;;16.42;1.63;;;;;;;18.85;65.37;99754.66;7312355;19;129510;-67
2022/12/27 01:05:05;;;;;;;52.88;5.85;;;;;;;18.87;65.58;99763.16;7308759;19;129195;-68
2022/12/27 01:07:31;;;;;;;20.92;2.22;;;;;;;18.91;65.84;99764.56;7312744;19;129462;-67
2022/12/27 01:09:56;;;;;;;41.78;3.60;;;;;;;18.94;65.58;99769.53;7312668;19;129407;-67
2022/12/27 01:12:21;;;;;;;16.77;1.75;;;;;;;18.93;65.73;99773.09;7310549;19;129446;-66
2022/12/27 01:14:47;;;;;;;7.35;1.05;;;;;;;18.92;65.52;99781.03;7312501;19;130317;-66
2022/12/27 01:17:12;;;;;;;22.25;2.28;;;;;;;18.94;65.19;99790.38;7309308;19;130063;-66
2022/12/27 01:19:38;;;;;;;25.98;2.30;;;;;;;18.97;65.45;99791.94;7312721;19;129390;-67
2022/12/27 01:22:04;;;;;;;17.08;1.67;;;;;;;18.96;65.98;99803.28;7310195;19;129034;-65
2022/12/27 01:24:30;;;;;;;21.52;2.10;;;;;;;18.95;65.59;99810.28;7310659;19;129193;-66
2022/12/27 01:26:55;;;;;;;22.02;2.05;;;;;;;18.95;65.76;99812.06;7311908;19;129198;-66
2022/12/27 01:29:20;;;;;;;37.58;3.65;;;;;;;18.97;65.48;99816.19;7312393;19;129459;-67
2022/12/27 01:31:47;;;;;;;15.45;1.45;;;;;;;18.97;65.38;99808.38;7308794;19;132675;-65
2022/12/27 01:34:13;;;;;;;14.55;1.50;;;;;;;18.98;65.45;99823.09;7312110;19;129238;-67
2022/12/27 01:36:38;;;;;;;28.03;2.63;;;;;;;18.96;65.67;99818.91;7312049;19;129402;-67
2022/12/27 01:39:03;;;;;;;14.40;1.67;;;;;;;18.95;65.13;99818.13;7312753;19;130043;-64
2022/12/27 01:44:53;;;;;;;7.93;0.90;;;;;;;18.69;65.33;99831.44;7311326;19;129717;-67
2022/12/27 01:47:22;;;;;;;17.77;1.90;;;;;;;18.67;64.68;99841.16;7313386;19;129592;-67
2022/12/27 01:49:59;;;;;;;16.75;1.67;;;;;;;18.67;66.18;99835.94;7311048;19;128980;-67
2022/12/27 01:52:30;;;;;;;18.65;2.22;;;;;;;18.64;64.61;99834.41;7307372;19;129091;-65
2022/12/27 01:55:01;;;;;;;39.90;4.35;;;;;;;18.71;64.57;99837.38;7310319;19;129376;-66
2022/12/27 01:57:28;;;;;;;39.40;3.53;;;;;;;18.65;64.07;99820.44;7310797;19;129369;-66
2022/12/27 01:59:54;;;;;;;12.15;1.35;;;;;;;18.77;64.20;99840.34;7311038;19;128915;-67
2022/12/27 02:02:21;;;;;;;16.65;1.60;;;;;;;18.82;63.52;99848.66;7307416;19;129736;-64
2022/12/27 02:04:47;;;;;;;18.17;1.95;;;;;;;18.83;64.05;99845.09;7309396;19;130059;-64
2022/12/27 02:07:13;;;;;;;27.30;2.53;;;;;;;18.84;63.87;99848.53;7309813;19;129061;-66
2022/12/27 02:09:49;;;;;;;16.38;1.85;;;;;;;18.82;64.63;99848.66;7312527;19;129330;-65
2022/12/27 02:12:16;;;;;;;18.20;1.70;;;;;;;18.83;63.44;99849.47;7308757;19;129533;-69
2022/12/27 02:14:44;;;;;;;15.75;1.60;;;;;;;18.78;63.74;99843.75;7310899;19;129663;-66
2022/12/27 02:17:19;;;;;;;25.70;2.47;;;;;;;18.81;64.74;99852.19;7308518;19;129466;-67
2022/12/27 02:19:54;;;;;;;30.60;2.75;;;;;;;18.80;64.27;99849.69;7310128;19;129461;-66
2022/12/27 02:25:50;;;;;;;12.48;1.77;;;;;;;18.74;65.74;99856.19;7308860;19;129529;-67
2022/12/27 02:28:53;;;;;;;29.55;2.80;;;;;;;18.78;66.54;99862.84;7310663;19;129058;-68
2022/12/27 02:31:27;;;;;;;14.52;1.42;;;;;;;18.76;66.15;99872.53;7307108;19;128968;-66
2022/12/27 02:33:54;;;;;;;29.60;2.90;;;;;;;18.78;65.41;99873.25;7309915;19;128892;-66
2022/12/27 02:36:34;;;;;;;16.42;1.45;;;;;;;18.85;65.98;99889.25;7309213;19;129568;-65
2022/12/27 02:39:01;;;;;;;8.65;1.08;;;;;;;18.87;65.17;99885.59;7310006;19;128691;-68
2022/12/27 02:53:03;;;;;;;15.70;1.58;;;;;;;18.95;66.21;99911.06;7306496;19;129197;-66
2022/12/27 02:59:18;;;;;;;37.15;3.10;;;;;;;18.96;66.24;99913.56;7309132;19;129172;-66
2022/12/27 03:05:13;;;;;;;33.95;2.90;;;;;;;18.99;66.42;99930.75;7308259;19;129116;-64
2022/12/27 03:08:03;;;;;;;8.20;1.13;;;;;;;18.99;66.38;99933.34;7308451;19;128978;-68
2022/12/27 03:16:56;;;;;;;24.75;2.15;;;;;;;18.60;65.43;99931.91;7314681;19;129692;-67
2022/12/27 03:33:11;;;;;;;17.27;1.83;;;;;;;18.86;64.08;99956.84;7317136;19;129922;-65
2022/12/27 03:33:24;;;;;;;16.58;1.75;;;;;;;18.89;63.50;99972.25;7316163;19;129377;-67
2022/12/27 03:39:15;;;;;;;13.75;1.40;;;;;;;18.92;64.32;99979.03;7315344;19;128900;-65
2022/12/27 03:45:01;;;;;;;73.88;7.65;;;;;;;18.87;63.81;99987.19;7310732;19;130095;-64
2022/12/27 03:47:59;;;;;;;16.90;1.77;;;;;;;18.84;64.88;99992.59;7315800;19;129359;-66
2022/12/27 03:50:42;;;;;;;37.30;3.30;;;;;;;18.83;65.16;99996.16;7314776;19;129192;-66
2022/12/27 03:53:40;;;;;;;28.90;2.85;;;;;;;18.88;65.65;99998.41;7314380;19;129396;-65
2022/12/27 03:56:07;;;;;;;29.90;2.75;;;;;;;18.75;64.70;99977.66;7313206;19;129885;-65
2022/12/27 03:58:33;;;;;;;15.38;1.65;;;;;;;18.85;64.32;99999.50;7315149;19;128894;-65
2022/12/27 04:00:58;;;;;;;14.90;1.63;;;;;;;18.85;65.82;99999.50;7313393;19;129181;-67
2022/12/27 04:03:23;;;;;;;12.38;1.38;;;;;;;18.88;65.34;100003.63;7313441;19;129189;-67
2022/12/27 04:05:49;;;;;;;35.72;3.67;;;;;;;18.91;66.06;100013.81;7312582;19;129665;-66
2022/12/27 04:35:34;;;;;;;15.73;1.83;;;;;;;18.98;65.55;100028.91;7312430;19;129819;-67
2022/12/27 04:37:59;;;;;;;38.60;3.47;;;;;;;19.00;65.69;100028.78;7313758;19;129304;-67
2022/12/27 04:56:59;;;;;;;23.80;2.63;;;;;;;18.82;63.87;100040.56;7312440;19;128914;-66
2022/12/27 05:02:09;;;;;;;29.33;2.97;;;;;;;18.95;63.53;100036.13;7309041;19;130851;-65
2022/12/27 05:04:36;;;;;;;35.42;3.03;;;;;;;18.96;63.06;100043.81;7311135;19;129173;-67
2022/12/27 05:13:58;;;;;;;24.45;2.45;;;;;;;19.00;63.39;100040.06;7312846;19;129655;-66
2022/12/27 05:15:17;;;;;;;13.35;1.30;;;;;;;18.98;63.63;100039.34;7312805;19;128981;-65
2022/12/27 05:17:42;;;;;;;16.83;1.73;;;;;;;18.97;63.38;100049.88;7312669;19;129066;-67
2022/12/27 05:20:08;;;;;;;28.20;3.20;;;;;;;18.92;63.29;100037.19;7312387;19;129648;-68
2022/12/27 05:25:37;;;;;;;27.52;2.50;;;;;;;18.90;63.78;100059.91;7309817;19;129439;-67
2022/12/27 05:28:05;;;;;;;27.27;2.80;;;;;;;18.93;65.06;100061.44;7313001;19;129104;-65
2022/12/27 05:30:35;;;;;;;17.65;1.95;;;;;;;18.89;65.48;100057.41;7311115;19;129559;-66
2022/12/27 05:33:01;;;;;;;18.27;1.80;;;;;;;18.88;64.71;100053.97;7311481;19;129553;-66
2022/12/27 05:35:27;;;;;;;19.73;2.05;;;;;;;18.88;64.76;100060.94;7310382;19;129037;-65
2022/12/27 05:37:56;;;;;;;35.88;3.25;;;;;;;18.85;64.35;100062.00;7307718;19;131893;-67
2022/12/27 05:40:23;;;;;;;14.43;1.67;;;;;;;18.86;64.09;100050.63;7311249;19;130380;-67
2022/12/27 05:42:49;;;;;;;12.68;1.48;;;;;;;18.93;66.20;100057.06;7311012;19;129000;-65
2022/12/27 05:45:14;;;;;;;31.77;3.50;;;;;;;18.94;64.54;100066.53;7306650;19;128978;-66
2022/12/27 05:47:40;;;;;;;33.10;3.25;;;;;;;18.95;65.95;100056.97;7311571;19;129630;-64
2022/12/27 05:50:06;;;;;;;24.13;2.53;;;;;;;18.96;66.25;100059.44;7311478;19;129257;-67
2022/12/27 05:52:31;;;;;;;24.13;2.30;;;;;;;19.00;66.14;100070.47;7308060;19;128943;-67
2022/12/27 05:54:57;;;;;;;51.45;4.95;;;;;;;19.05;65.26;100069.22;7309370;19;129347;-65
2022/12/27 05:57:22;;;;;;;27.45;2.53;;;;;;;19.04;65.57;100070.13;7311164;19;129100;-67
2022/12/27 05:59:47;;;;;;;12.52;0.90;;;;;;;19.00;65.73;100076.53;7313671;19;129242;-65
2022/12/27 06:02:13;;;;;;;20.55;1.95;;;;;;;18.92;65.57;100055.44;7309798;19;129463;-66
2022/12/27 06:04:38;;;;;;;29.85;2.60;;;;;;;18.96;64.89;100075.09;7310141;19;129297;-65
2022/12/27 06:07:03;;;;;;;23.17;2.13;;;;;;;18.84;65.19;100060.31;7308653;19;131820;-65
2022/12/27 06:09:29;;;;;;;17.08;1.75;;;;;;;18.89;64.51;100083.47;7310672;19;129128;-66
2022/12/27 06:11:54;;;;;;;19.13;1.88;;;;;;;18.90;64.74;100085.97;7308429;19;128992;-66
2022/12/27 06:14:20;;;;;;;33.22;3.17;;;;;;;18.87;64.88;100080.13;7310355;19;128804;-66
2022/12/27 06:16:45;;;;;;;3.20;0.38;;;;;;;18.87;64.00;100083.56;7310694;19;129004;-67
2022/12/27 06:19:10;;;;;;;23.55;2.33;;;;;;;18.93;63.44;100085.72;7309077;19;132023;-66
2022/12/27 06:21:36;;;;;;;21.70;2.08;;;;;;;18.83;63.49;100071.69;7308472;19;130074;-66
2022/12/27 06:24:01;;;;;;;30.15;2.78;;;;;;;19.01;63.34;100093.81;7310275;19;129181;-65
2022/12/27 06:26:28;;;;;;;19.50;2.10;;;;;;;19.02;63.41;100095.47;7309822;19;128971;-66
2022/12/27 06:28:56;;;;;;;13.65;1.48;;;;;;;19.04;63.64;100093.59;7311571;19;129348;-65
2022/12/27 06:31:22;;;;;;;19.95;2.08;;;;;;;19.07;62.59;100098.56;7308323;19;129907;-66
2022/12/27 06:33:48;;;;;;;36.13;3.13;;;;;;;19.02;62.80;100099.88;7310248;19;131100;-66
2022/12/27 06:36:16;;;;;;;23.60;2.40;;;;;;;19.03;63.47;100096.31;7310269;19;130232;-65
2022/12/27 06:38:42;;;;;;;17.58;1.80;;;;;;;19.04;63.53;100098.00;7309582;19;129249;-66
2022/12/27 06:41:09;;;;;;;9.25;1.02;;;;;;;18.88;64.03;100087.84;7306864;19;129024;-67
2022/12/27 06:43:35;;;;;;;40.45;3.53;;;;;;;19.00;63.61;100099.16;7309578;19;129151;-66
2022/12/27 06:46:03;;;;;;;18.00;2.13;;;;;;;18.91;64.46;100094.59;7305374;19;130373;-66
2022/12/27 06:48:28;;;;;;;12.15;1.42;;;;;;;18.82;63.62;100093.50;7311675;19;132875;-68
2022/12/27 06:50:54;;;;;;;16.92;1.77;;;;;;;18.93;64.50;100111.78;7314548;19;129186;-66
2022/12/27 06:53:20;;;;;;;40.50;3.85;;;;;;;18.92;64.34;100119.72;7315031;19;129361;-67
2022/12/27 06:55:45;;;;;;;16.13;1.65;;;;;;;18.96;65.27;100106.34;7314722;19;129856;-67
2022/12/27 06:58:12;;;;;;;75.22;7.60;;;;;;;18.96;65.30;100115.94;7311562;19;129514;-65
2022/12/27 07:00:38;;;;;;;28.00;3.03;;;;;;;18.95;65.71;100120.31;7315131;19;128992;-68
2022/12/27 07:03:04;;;;;;;27.40;2.58;;;;;;;19.02;65.86;100131.13;7317493;19;128828;-66
2022/12/27 07:05:30;;;;;;;17.92;1.83;;;;;;;19.02;65.53;100131.94;7314046;19;130372;-68
2022/12/27 07:07:55;;;;;;;16.60;1.67;;;;;;;19.01;64.70;100143.31;7317299;19;129879;-66
2022/12/27 07:10:20;;;;;;;20.92;2.22;;;;;;;19.01;65.61;100139.88;7315508;19;129064;-68
2022/12/27 07:12:46;;;;;;;34.25;3.15;;;;;;;19.00;65.38;100143.44;7315391;19;128846;-65
2022/12/27 07:15:11;;;;;;;47.75;4.78;;;;;;;19.06;65.45;100145.59;7312215;19;129031;-65
2022/12/27 07:17:38;;;;;;;15.75;1.60;;;;;;;19.09;65.27;100154.03;7314122;19;132082;-65
2022/12/27 07:20:04;;;;;;;26.27;2.85;;;;;;;18.95;65.31;100135.97;7315966;19;129993;-66
2022/12/27 07:22:30;;;;;;;30.35;3.05;;;;;;;19.05;64.96;100160.41;7312648;19;129069;-66
2022/12/27 07:24:55;;;;;;;6.32;0.88;;;;;;;19.06;64.58;100169.88;7313834;19;129686;-66
2022/12/27 07:27:20;;;;;;;16.48;1.70;;;;;;;19.04;65.26;100169.16;7315060;19;129782;-64
2022/12/27 07:29:46;;;;;;;32.58;3.00;;;;;;;18.98;64.69;100172.22;7315738;19;129321;-66
2022/12/27 07:32:11;;;;;;;14.02;1.42;;;;;;;18.82;64.99;100156.00;7313714;19;128973;-67
2022/12/27 07:34:37;;;;;;;18.58;2.00;;;;;;;18.88;64.83;100179.00;7315417;19;129260;-66
2022/12/27 07:37:02;;;;;;;18.95;1.88;;;;;;;18.87;64.11;100185.19;7314066;19;129469;-65
2022/12/27 07:39:27;;;;;;;33.55;2.70;;;;;;;18.89;64.10;100190.28;7314862;19;128828;-68
2022/12/27 07:41:53;;;;;;;22.08;1.98;;;;;;;18.88;63.00;100192.03;7316223;19;129274;-65
2022/12/27 07:44:18;;;;;;;22.83;2.00;;;;;;;18.95;63.65;100192.44;7315134;19;129858;-65
2022/12/27 07:46:44;;;;;;;14.25;1.50;;;;;;;19.03;63.12;100187.50;7313849;19;129942;-67
2022/12/27 07:49:10;;;;;;;33.40;2.97;;;;;;;19.09;63.80;100200.09;7315867;19;129313;-65
2022/12/27 07:51:36;;;;;;;5.73;0.70;;;;;;;19.14;63.33;100187.56;7314093;19;129325;-67
2022/12/27 07:54:01;;;;;;;15.77;1.65;;;;;;;19.15;62.74;100194.47;7314995;19;129483;-66
2022/12/27 07:56:28;;;;;;;20.45;2.15;;;;;;;19.15;62.98;100195.31;7313708;19;129720;-67
2022/12/27 07:58:56;;;;;;;34.20;3.17;;;;;;;19.13;63.06;100197.19;7315064;19;129294;-67
2022/12/27 08:01:24;;;;;;;18.48;1.67;;;;;;;19.14;63.16;100198.84;7312820;19;128891;-67
2022/12/27 08:03:49;;;;;;;15.73;1.52;;;;;;;19.12;62.93;100200.72;7315415;19;128978;-65
2022/12/27 08:06:22;;;;;;;14.55;1.30;;;;;;;19.09;63.65;100213.13;7310799;19;129609;-65
2022/12/27 08:08:48;;;;;;;41.15;3.40;;;;;;;19.06;63.34;100214.19;7314499;19;129523;-68
2022/12/27 08:11:14;;;;;;;13.95;1.33;;;;;;;19.04;64.74;100215.25;7313538;19;129363;-67
2022/12/27 08:13:39;;;;;;;19.17;1.90;;;;;;;19.03;63.88;100221.38;7312362;19;131852;-67
2022/12/27 08:16:05;;;;;;;19.15;2.10;;;;;;;18.90;63.86;100213.63;7313189;19;130161;-65
2022/12/27 08:18:31;;;;;;;40.40;3.70;;;;;;;19.00;64.11;100238.09;7314810;19;129858;-66
2022/12/27 08:20:56;;;;;;;16.95;1.70;;;;;;;19.00;64.39;100230.28;7313166;19;129044;-67
2022/12/27 08:23:21;;;;;;;18.73;1.73;;;;;;;18.98;64.80;100229.53;7313777;19;129103;-67
2022/12/27 08:25:47;;;;;;;14.32;1.40;;;;;;;18.99;65.05;100231.19;7310776;19;130138;-67
2022/12/27 08:28:14;;;;;;;38.22;3.63;;;;;;;18.93;65.28;100221.22;7314427;19;129102;-65
2022/12/27 08:30:42;;;;;;;16.90;1.80;;;;;;;19.07;64.81;100238.47;7313550;19;129660;-67
2022/12/27 08:33:08;;;;;;;13.23;1.40;;;;;;;19.07;65.05;100241.09;7315240;19;129215;-67
2022/12/27 08:35:39;;;;;;;22.70;2.17;;;;;;;19.07;65.83;100246.31;7310472;19;131240;-65
2022/12/27 08:38:04;;;;;;;32.35;3.15;;;;;;;19.00;66.10;100234.63;7311213;19;129268;-65
2022/12/27 08:40:29;;;;;;;19.20;2.08;;;;;;;19.07;65.42;100239.28;7313106;19;129345;-67
2022/12/27 08:42:55;;;;;;;18.27;2.08;;;;;;;18.98;65.23;100232.16;7313176;19;129542;-65
2022/12/27 08:45:20;;;;;;;15.27;1.70;;;;;;;19.11;64.87;100238.16;7310626;19;129590;-65
2022/12/27 08:47:45;;;;;;;27.75;2.53;;;;;;;19.07;65.77;100238.47;7313361;19;129147;-65
2022/12/27 08:50:11;;;;;;;25.13;2.47;;;;;;;19.08;65.32;100235.78;7313356;19;129080;-64
2022/12/27 08:52:36;;;;;;;6.93;0.93;;;;;;;19.12;65.60;100239.81;7311437;19;130151;-65
2022/12/27 08:55:02;;;;;;;61.20;6.88;;;;;;;19.07;64.88;100238.47;7309452;19;131875;-65
2022/12/27 08:57:27;;;;;;;28.70;2.70;;;;;;;19.02;65.57;100251.81;7310839;19;129714;-64
2022/12/27 08:59:53;;;;;;;14.07;1.58;;;;;;;18.99;64.94;100252.03;7313074;19;128941;-66
2022/12/27 09:02:18;;;;;;;15.90;1.67;;;;;;;18.93;64.94;100257.69;7309859;19;129133;-66
2022/12/27 09:04:43;;;;;;;20.33;2.13;;;;;;;18.93;64.46;100252.47;7311538;19;130097;-65
2022/12/27 09:07:09;;;;;;;17.38;1.70;;;;;;;18.79;64.16;100234.34;7311824;19;128879;-66
2022/12/27 09:09:34;;;;;;;15.82;1.73;;;;;;;18.93;63.57;100262.91;7310896;19;129178;-66
2022/12/27 09:11:59;;;;;;;16.65;1.88;;;;;;;18.94;63.68;100259.34;7306907;19;129997;-66
2022/12/27 09:14:25;;;;;;;20.58;2.17;;;;;;;19.00;63.22;100252.88;7310848;19;131792;-66
2022/12/27 09:16:50;;;;;;;30.60;2.95;;;;;;;19.09;62.57;100253.06;7311382;19;128866;-67
2022/12/27 09:19:15;;;;;;;17.73;1.63;;;;;;;19.12;62.55;100257.25;7311944;19;128848;-66
2022/12/27 09:21:42;;;;;;;16.10;1.40;;;;;;;19.15;63.31;100251.81;7308783;19;132270;-67
2022/12/27 09:24:12;;;;;;;;;;;;;;;19.06;64.02;100222.00;7314810;19;129152;-66
2022/12/27 09:26:38;;;;;;;14.52;1.58;;;;;;;19.17;63.23;100247.31;7309400;19;129013;-66
2022/12/27 09:29:04;;;;;;;25.13;2.53;;;;;;;19.12;63.24;100242.41;7312325;19;129151;-68
2022/12/27 09:31:29;;;;;;;17.42;1.85;;;;;;;19.11;63.20;100239.91;7310283;19;129558;-64
2022/12/27 09:33:57;;;;;;;24.05;2.25;;;;;;;19.13;63.55;100261.50;7312268;19;129148;-64
2022/12/27 09:36:25;;;;;;;10.68;1.02;;;;;;;19.06;64.60;100240.25;7309921;19;128754;-66
2022/12/27 09:38:52;;;;;;;43.65;5.07;;;;;;;19.05;63.62;100249.03;7309131;19;129973;-66
2022/12/27 09:41:31;;;;;;;16.35;1.70;;;;;;;18.98;64.00;100255.59;7307385;19;132945;-65
2022/12/27 09:44:22;;;;;;;21.45;2.00;;;;;;;18.97;65.87;100246.09;7312680;19;129076;-67
2022/12/27 09:46:56;;;;;;;6.63;0.77;;;;;;;18.99;65.60;100240.81;7309743;19;129438;-64
2022/12/27 09:49:42;;;;;;;33.08;3.05;;;;;;;18.98;65.12;100250.38;7310691;19;129064;-65
2022/12/27 09:52:10;;;;;;;34.20;3.10;;;;;;;18.97;65.36;100248.69;7308268;19;129268;-66
2022/12/27 09:54:51;;;;;;;21.08;1.88;;;;;;;19.01;65.73;100239.75;7310468;19;132926;-65
2022/12/27 09:57:23;;;;;;;8.77;1.20;;;;;;;19.03;65.72;100231.81;7311605;19;129254;-66
2022/12/27 09:59:55;;;;;;;16.88;1.70;;;;;;;18.92;66.26;100203.91;7310470;19;128938;-66
2022/12/27 10:02:24;;;;;;;11.88;1.20;;;;;;;19.08;65.14;100232.31;7308153;19;129166;-65
2022/12/27 10:04:50;;;;;;;28.08;2.65;;;;;;;19.09;65.50;100219.19;7310006;19;129325;-66
2022/12/27 10:07:22;;;;;;;26.98;2.60;;;;;;;19.13;66.43;100225.84;7310683;19;129807;-66
2022/12/27 10:10:15;;;;;;;13.75;1.27;;;;;;;19.12;65.95;100226.78;7310171;19;129365;-65
2022/12/27 10:13:12;;;;;;;15.20;1.42;;;;;;;19.02;66.17;100219.72;7312328;19;129770;-66
2022/12/27 10:16:24;;;;;;;30.52;2.65;;;;;;;19.14;65.85;100234.47;7310358;19;129564;-65
2022/12/27 10:19:11;;;;;;;23.10;2.10;;;;;;;19.11;66.29;100240.75;7308069;19;129337;-66
2022/12/27 10:21:47;;;;;;;18.03;1.87;;;;;;;18.98;65.70;100216.50;7308116;19;129319;-66
2022/12/27 10:24:25;;;;;;;27.23;2.58;;;;;;;19.08;66.10;100227.94;7314155;19;129747;-68
2022/12/27 10:26:53;;;;;;;34.85;3.25;;;;;;;19.03;65.34;100235.25;7316790;19;129549;-66
2022/12/27 10:29:21;;;;;;;14.63;1.55;;;;;;;18.97;64.64;100216.63;7318668;19;129107;-67
2022/12/27 10:31:47;;;;;;;14.50;1.40;;;;;;;18.91;64.39;100211.81;7315875;19;129071;-66
2022/12/27 10:34:15;;;;;;;15.80;1.52;;;;;;;18.94;65.75;100215.03;7316784;19;129026;-66
2022/12/27 10:36:42;;;;;;;62.47;6.25;;;;;;;18.94;63.84;100233.28;7312970;19;129721;-67
2022/12/27 10:39:17;;;;;;;14.15;1.60;;;;;;;18.98;64.33;100219.13;7315828;19;128975;-67
2022/12/27 10:41:56;;;;;;;19.00;2.10;;;;;;;19.00;63.86;100227.66;7315664;19;129478;-65
2022/12/27 10:44:22;;;;;;;14.40;1.52;;;;;;;19.06;63.55;100227.22;7314621;19;131995;-67
2022/12/27 10:46:49;;;;;;;;;;;;;;;19.08;63.51;100235.78;7315894;19;130843;-67
2022/12/27 10:49:23;;;;;;;34.88;3.25;;;;;;;19.12;63.90;100237.19;7316646;19;129740;-66
2022/12/27 10:51:51;;;;;;;18.13;1.92;;;;;;;19.11;63.19;100239.91;7314902;19;128937;-66
2022/12/27 10:54:23;;;;;;;16.45;1.80;;;;;;;19.10;63.27;100230.44;7316594;19;129107;-65
2022/12/27 10:56:48;;;;;;;14.68;1.50;;;;;;;19.06;62.78;100224.63;7314924;19;129150;-67
2022/12/27 10:59:17;;;;;;;32.22;3.00;;;;;;;19.06;64.15;100232.44;7316331;19;129036;-65
2022/12/27 11:01:44;;;;;;;24.30;2.15;;;;;;;19.04;64.28;100223.88;7315267;19;129202;-65
2022/12/27 11:04:12;;;;;;;18.58;1.55;;;;;;;18.90;63.25;100207.56;7319260;19;129569;-65
2022/12/27 11:06:38;;;;;;;29.70;3.00;;;;;;;19.02;63.29;100224.94;7312617;19;129682;-66
2022/12/27 11:09:36;;;;;;;28.83;2.70;;;;;;;18.97;65.61;100227.84;7313421;19;129616;-65
2022/12/27 11:12:22;;;;;;;15.77;1.73;;;;;;;18.96;65.86;100231.41;7311992;19;129524;-67
2022/12/27 11:14:53;;;;;;;10.63;1.17;;;;;;;18.97;66.11;100227.84;7315424;19;129682;-64
2022/12/27 11:17:24;;;;;;;35.63;3.10;;;;;;;18.98;65.50;100239.97;7315033;19;129223;-64
2022/12/27 11:19:50;;;;;;;21.33;1.83;;;;;;;18.97;64.53;100243.47;7316262;19;129723;-69
2022/12/27 11:22:16;;;;;;;15.27;1.42;;;;;;;18.99;64.88;100241.59;7313214;19;129203;-68
2022/12/27 11:24:47;;;;;;;18.65;1.83;;;;;;;19.03;65.68;100243.06;7315229;19;129175;-67
2022/12/27 11:27:29;;;;;;;29.55;2.75;;;;;;;19.07;65.99;100247.13;7312133;19;132127;-67
2022/12/27 11:29:57;;;;;;;36.83;3.30;;;;;;;19.05;65.77;100251.63;7313063;19;129723;-66
2022/12/27 11:32:23;;;;;;;31.35;2.75;;;;;;;19.05;65.52;100246.41;7313341;19;129061;-65
2022/12/27 11:34:55;;;;;;;8.30;0.95;;;;;;;19.04;65.11;100244.72;7313655;19;130167;-66
2022/12/27 11:37:24;;;;;;;21.23;2.20;;;;;;;19.04;65.44;100247.34;7312746;19;132140;-64
2022/12/27 11:40:11;;;;;;;21.13;2.22;;;;;;;19.09;65.99;100247.00;7314749;19;129851;-64
2022/12/27 11:42:43;;;;;;;25.25;2.15;;;;;;;19.09;66.34;100252.22;7315460;19;129603;-65
2022/12/27 11:45:18;;;;;;;54.63;5.30;;;;;;;19.11;66.08;100255.56;7311339;19;131963;-66
2022/12/27 11:48:28;;;;;;;25.65;2.40;;;;;;;19.14;66.04;100245.75;7314932;19;129419;-66
2022/12/27 11:51:42;;;;;;;26.30;2.53;;;;;;;19.09;65.92;100247.84;7308968;19;129119;-66
2022/12/27 11:54:19;;;;;;;14.10;1.27;;;;;;;18.98;65.41;100250.38;7310750;19;129999;-66
2022/12/27 11:56:51;;;;;;;18.10;1.88;;;;;;;18.94;65.75;100248.91;7312600;19;129194;-66
2022/12/27 11:59:28;;;;;;;30.75;2.90;;;;;;;18.90;64.16;100246.63;7313966;19;129280;-66
2022/12/27 12:01:57;;;;;;;21.27;2.08;;;;;;;18.87;64.41;100247.69;7311906;19;129749;-65
2022/12/27 12:05:00;;;;;;;23.60;2.13;;;;;;;18.81;64.27;100237.69;7314974;19;128931;-64
2022/12/27 12:07:56;;;;;;;33.60;3.33;;;;;;;18.98;64.33;100252.16;7313988;19;129669;-65
2022/12/27 12:10:40;;;;;;;33.70;2.90;;;;;;;19.03;64.03;100247.44;7312470;19;129206;-66
2022/12/27 12:13:26;;;;;;;37.90;3.47;;;;;;;19.07;63.80;100244.50;7313317;19;129914;-66
2022/12/27 12:16:13;;;;;;;33.92;3.08;;;;;;;19.07;63.19;100236.69;7312228;19;129461;-65
2022/12/27 12:19:06;;;;;;;34.50;3.08;;;;;;;19.09;64.14;100231.38;7315060;19;130233;-67
2022/12/27 12:22:10;;;;;;;41.05;3.92;;;;;;;19.12;63.72;100226.78;7311089;19;129749;-67
2022/12/27 12:24:59;;;;;;;15.10;1.50;;;;;;;18.95;64.19;100215.88;7314132;19;129049;-65
2022/12/27 12:27:30;;;;;;;16.92;1.80;;;;;;;19.05;63.84;100228.16;7314302;19;129541;-67
2022/12/27 12:29:55;;;;;;;44.88;4.68;;;;;;;19.00;63.78;100230.28;7310121;19;129628;-66
2022/12/27 12:32:55;;;;;;;18.67;2.00;;;;;;;18.99;64.04;100236.41;7312019;19;129820;-67
2022/12/27 12:35:39;;;;;;;36.53;3.22;;;;;;;19.00;64.65;100237.25;7312871;19;129136;-65
2022/12/27 12:38:20;;;;;;;36.20;3.60;;;;;;;19.00;65.17;100240.69;7313466;19;129554;-65
2022/12/27 12:41:18;;;;;;;29.27;2.70;;;;;;;19.00;65.78;100238.09;7311022;19;132014;-66
2022/12/27 12:44:06;;;;;;;45.70;3.55;;;;;;;18.92;65.10;100229.97;7311360;19;132646;-67
2022/12/27 12:46:51;;;;;;;51.90;4.20;;;;;;;18.87;66.35;100219.03;7309273;19;129445;-67
2022/12/27 12:49:28;;;;;;;37.55;3.08;;;;;;;19.02;65.74;100241.38;7313197;19;129160;-66
2022/12/27 12:52:03;;;;;;;11.70;1.30;;;;;;;19.01;65.91;100244.94;7310777;19;129285;-65
2022/12/27 12:54:28;;;;;;;17.17;1.67;;;;;;;18.96;64.79;100235.78;7313370;19;129122;-67
2022/12/27 12:57:18;;;;;;;24.38;2.53;;;;;;;19.04;66.36;100239.53;7312245;19;128828;-67
2022/12/27 13:00:03;;;;;;;18.25;1.92;;;;;;;19.02;65.99;100244.00;7312927;19;129789;-66
2022/12/27 13:02:50;;;;;;;17.77;1.77;;;;;;;19.13;66.68;100243.25;7306466;19;129413;-66
2022/12/27 13:05:18;;;;;;;33.13;3.47;;;;;;;19.12;65.71;100258.06;7311915;19;129444;-65
2022/12/27 13:08:08;;;;;;;23.88;2.17;;;;;;;19.11;66.32;100256.41;7312979;19;129974;-68
2022/12/27 13:10:46;;;;;;;24.08;2.60;;;;;;;19.08;66.47;100251.41;7308893;19;129312;-66
2022/12/27 13:13:34;;;;;;;31.52;2.72;;;;;;;19.04;65.99;100254.34;7313054;19;129687;-68